Time;durP1;ratioP1;P1;durP2;ratioP2;P2;SDS_P1;SDS_P2;PMS_P1;PMS_P2;Temp;Humidity;BMP_temperature;BMP_pressure;BME280_temperature;BME280_humidity;BME280_pressure;Samples;Min_cycle;Max_cycle;Signal;HPM_P1;HPM_P2
2024/01/03 00:01:17;;;;;;;14.48;4.70;;;10.60;99.90;;;;;;5095339;28;20256;-62
2024/01/03 00:03:43;;;;;;;15.73;5.32;;;10.70;99.90;;;;;;5094994;28;20270;-62
2024/01/03 00:06:09;;;;;;;9.20;4.50;;;10.70;99.90;;;;;;5095204;28;20643;-62
2024/01/03 00:08:38;;;;;;;13.75;4.45;;;10.60;99.90;;;;;;5095083;28;20201;-62
2024/01/03 00:11:04;;;;;;;15.82;4.97;;;10.70;99.90;;;;;;5094966;28;20189;-62
2024/01/03 00:13:32;;;;;;;8.70;4.25;;;10.70;99.90;;;;;;5095159;28;20173;-62
2024/01/03 00:16:01;;;;;;;11.60;4.40;;;10.70;99.90;;;;;;5094780;28;20181;-62
2024/01/03 00:18:35;;;;;;;15.68;4.75;;;10.70;99.90;;;;;;5094826;28;20177;-62
2024/01/03 00:21:14;;;;;;;12.95;4.40;;;10.70;99.90;;;;;;5094850;28;20173;-63
2024/01/03 00:23:52;;;;;;;11.32;4.10;;;10.70;99.90;;;;;;5095240;28;20173;-63
2024/01/03 00:26:18;;;;;;;12.73;4.63;;;10.70;99.90;;;;;;5094642;28;20205;-62
2024/01/03 00:28:44;;;;;;;15.70;5.30;;;10.70;99.90;;;;;;5094662;28;20234;-62
2024/01/03 00:31:30;;;;;;;12.77;4.85;;;10.70;99.90;;;;;;5094679;28;20241;-62
2024/01/03 00:33:56;;;;;;;14.48;4.50;;;10.60;99.90;;;;;;5094307;28;20166;-62
2024/01/03 00:36:22;;;;;;;20.05;5.80;;;10.50;99.90;;;;;;5094684;28;20226;-62
2024/01/03 00:38:48;;;;;;;12.85;4.78;;;10.30;99.90;;;;;;5094916;28;20181;-61
2024/01/03 00:41:14;;;;;;;13.53;4.77;;;10.20;99.90;;;;;;5094416;28;20697;-62
2024/01/03 00:43:40;;;;;;;17.77;4.70;;;10.10;99.90;;;;;;5094703;28;20673;-62
2024/01/03 00:46:08;;;;;;;12.55;5.07;;;10.00;99.90;;;;;;5094412;28;20208;-62
2024/01/03 00:48:34;;;;;;;14.73;5.13;;;9.90;99.90;;;;;;5093427;28;20288;-62
2024/01/03 00:51:01;;;;;;;11.68;4.72;;;9.90;99.90;;;;;;5094509;28;20181;-62
2024/01/03 00:53:28;;;;;;;14.80;4.73;;;9.90;99.90;;;;;;5094767;28;20172;-62
2024/01/03 00:55:54;;;;;;;10.05;4.47;;;9.90;99.90;;;;;;5094203;28;20170;-61
2024/01/03 00:58:20;;;;;;;15.23;5.57;;;10.10;99.90;;;;;;5094083;28;20238;-62
2024/01/03 01:00:47;;;;;;;15.32;5.13;;;10.20;99.90;;;;;;5094300;28;20205;-62
2024/01/03 01:03:12;;;;;;;10.95;4.50;;;10.20;99.90;;;;;;5093708;28;20251;-62
2024/01/03 01:05:39;;;;;;;8.02;4.45;;;10.20;99.90;;;;;;5094304;28;20219;-62
2024/01/03 01:08:05;;;;;;;14.95;4.43;;;10.30;99.90;;;;;;5094325;28;20540;-62
2024/01/03 01:10:31;;;;;;;12.20;5.07;;;10.30;99.90;;;;;;5093570;28;20216;-62
2024/01/03 01:12:57;;;;;;;13.38;4.90;;;10.20;99.90;;;;;;5094140;28;20177;-62
2024/01/03 01:15:23;;;;;;;15.02;4.65;;;10.10;99.90;;;;;;5094195;28;20658;-61
2024/01/03 01:17:48;;;;;;;8.32;4.03;;;10.10;99.90;;;;;;5093461;28;20691;-63
2024/01/03 01:20:14;;;;;;;11.07;4.55;;;10.00;99.90;;;;;;5093758;28;20181;-62
2024/01/03 01:22:40;;;;;;;14.45;4.95;;;10.00;99.90;;;;;;5075740;28;20283;-62
2024/01/03 01:25:06;;;;;;;9.45;5.00;;;9.90;99.90;;;;;;5093895;28;20617;-62
2024/01/03 01:27:32;;;;;;;10.65;4.20;;;9.90;99.90;;;;;;5094064;28;20694;-61
2024/01/03 01:29:58;;;;;;;8.73;4.93;;;9.90;99.90;;;;;;5093837;28;20212;-62
2024/01/03 01:32:24;;;;;;;11.00;4.30;;;9.80;99.90;;;;;;5093886;28;20185;-62
2024/01/03 01:34:49;;;;;;;12.52;4.75;;;9.70;99.90;;;;;;5093360;28;20169;-61
2024/01/03 01:37:15;;;;;;;8.37;4.40;;;9.70;99.90;;;;;;5093736;28;20617;-62
2024/01/03 01:39:44;;;;;;;15.87;4.20;;;9.70;99.90;;;;;;5093687;28;20734;-62
2024/01/03 01:42:10;;;;;;;11.57;4.80;;;9.60;99.90;;;;;;5093489;28;20177;-62
2024/01/03 01:44:36;;;;;;;8.95;4.47;;;9.60;99.90;;;;;;5093264;28;20688;-62
2024/01/03 01:47:05;;;;;;;13.73;4.22;;;9.50;99.90;;;;;;5093692;28;20193;-62
2024/01/03 01:49:32;;;;;;;13.07;5.22;;;9.40;99.90;;;;;;5075418;28;20614;-62
2024/01/03 01:51:58;;;;;;;11.07;4.13;;;9.30;99.90;;;;;;5093745;28;20242;-61
2024/01/03 01:54:24;;;;;;;12.50;4.90;;;9.10;99.90;;;;;;5093857;28;20177;-62
2024/01/03 01:56:50;;;;;;;11.40;4.60;;;9.10;99.90;;;;;;5093352;28;20205;-62
2024/01/03 01:59:19;;;;;;;11.33;4.40;;;9.00;99.90;;;;;;5094019;28;20295;-63
2024/01/03 02:01:45;;;;;;;14.67;4.33;;;9.00;99.90;;;;;;5097722;28;20176;-62
2024/01/03 02:04:11;;;;;;;17.33;4.43;;;9.00;99.90;;;;;;5097132;28;20237;-62
2024/01/03 02:06:37;;;;;;;17.80;5.43;;;9.00;99.90;;;;;;5097509;28;20192;-62
2024/01/03 02:09:03;;;;;;;10.50;4.87;;;9.00;99.90;;;;;;5097386;28;20236;-63
2024/01/03 02:11:28;;;;;;;18.47;4.93;;;9.10;99.90;;;;;;5097671;28;20572;-62
2024/01/03 02:13:54;;;;;;;11.97;4.83;;;9.20;99.90;;;;;;5097906;28;20181;-63
2024/01/03 02:16:20;;;;;;;13.73;4.80;;;9.30;99.90;;;;;;5097336;28;20236;-63
2024/01/03 02:18:47;;;;;;;9.37;4.57;;;9.40;99.90;;;;;;5097178;28;20528;-62
2024/01/03 02:21:16;;;;;;;11.32;4.88;;;9.40;99.90;;;;;;5097344;28;20242;-62
2024/01/03 02:23:43;;;;;;;17.33;4.97;;;9.50;99.90;;;;;;5097510;28;20238;-62
2024/01/03 02:26:09;;;;;;;10.57;4.40;;;9.60;99.90;;;;;;5097206;28;20262;-61
2024/01/03 02:28:35;;;;;;;10.23;4.88;;;9.60;99.90;;;;;;5097110;28;20583;-64
2024/01/03 02:31:01;;;;;;;11.82;4.55;;;9.60;99.90;;;;;;5097561;28;20591;-62
2024/01/03 02:33:27;;;;;;;10.32;4.63;;;9.60;99.90;;;;;;5096811;28;20181;-62
2024/01/03 02:35:53;;;;;;;11.53;4.83;;;9.50;99.90;;;;;;5096743;28;20197;-62
2024/01/03 02:38:21;;;;;;;8.13;4.43;;;9.50;99.90;;;;;;5096940;28;20182;-62
2024/01/03 02:40:47;;;;;;;8.48;4.30;;;9.50;99.90;;;;;;5078585;28;20185;-62
2024/01/03 02:43:13;;;;;;;9.57;4.30;;;9.60;99.90;;;;;;5097148;28;20188;-63
2024/01/03 02:45:39;;;;;;;8.90;4.57;;;9.70;99.90;;;;;;5097150;28;20254;-62
2024/01/03 02:48:05;;;;;;;10.73;4.93;;;9.70;99.90;;;;;;5096263;28;20200;-62
2024/01/03 02:50:31;;;;;;;10.23;4.37;;;9.70;99.90;;;;;;5096719;28;20201;-62
2024/01/03 02:52:56;;;;;;;7.68;4.13;;;9.70;99.90;;;;;;5096737;28;20239;-61
2024/01/03 02:55:22;;;;;;;11.65;4.22;;;9.60;99.90;;;;;;5096507;28;20177;-61
2024/01/03 02:57:48;;;;;;;10.27;4.25;;;9.50;99.90;;;;;;5095314;28;20225;-62
2024/01/03 03:00:14;;;;;;;10.10;4.10;;;9.40;99.90;;;;;;5095504;28;20179;-62
2024/01/03 03:02:40;;;;;;;14.17;4.30;;;9.40;99.90;;;;;;5095545;28;20185;-62
2024/01/03 03:05:06;;;;;;;8.50;4.20;;;9.30;99.90;;;;;;5094787;28;20673;-62
2024/01/03 03:07:32;;;;;;;7.07;4.38;;;9.40;99.90;;;;;;5094985;28;20260;-61
2024/01/03 03:09:58;;;;;;;13.00;4.83;;;9.30;99.90;;;;;;5094690;28;20616;-61
2024/01/03 03:12:24;;;;;;;15.13;4.63;;;9.40;99.90;;;;;;5095250;28;20173;-62
2024/01/03 03:14:50;;;;;;;7.28;3.80;;;9.40;99.90;;;;;;5095536;28;20256;-61
2024/01/03 03:17:16;;;;;;;10.20;4.22;;;9.40;99.90;;;;;;5094884;28;20708;-61
2024/01/03 03:19:43;;;;;;;8.95;4.38;;;9.40;99.90;;;;;;5094925;28;20564;-61
2024/01/03 03:22:09;;;;;;;5.47;4.10;;;9.30;99.90;;;;;;5095152;28;20653;-61
2024/01/03 03:24:35;;;;;;;12.45;4.20;;;9.40;99.90;;;;;;5094783;28;20243;-61
2024/01/03 03:27:00;;;;;;;6.50;4.10;;;9.40;99.90;;;;;;5094880;28;20268;-62
2024/01/03 03:29:26;;;;;;;12.07;4.17;;;9.50;99.90;;;;;;5094624;28;20212;-62
2024/01/03 03:31:52;;;;;;;9.17;4.20;;;9.60;99.90;;;;;;5095057;28;20181;-62
2024/01/03 03:34:18;;;;;;;9.80;4.25;;;9.60;99.90;;;;;;5094321;28;20221;-62
2024/01/03 03:36:45;;;;;;;17.15;4.15;;;9.70;99.90;;;;;;5094758;28;20231;-62
2024/01/03 03:39:10;;;;;;;13.50;4.47;;;9.60;99.90;;;;;;5094834;28;20197;-63
2024/01/03 03:41:37;;;;;;;6.35;3.70;;;9.70;99.90;;;;;;5095137;28;20181;-62
2024/01/03 03:44:03;;;;;;;9.15;4.18;;;9.80;99.90;;;;;;5095204;28;20209;-62
2024/01/03 03:46:30;;;;;;;11.27;4.65;;;9.90;99.90;;;;;;5094413;28;20540;-61
2024/01/03 03:48:55;;;;;;;10.48;4.38;;;9.90;99.90;;;;;;5094289;28;20554;-63
2024/01/03 03:51:22;;;;;;;6.03;3.40;;;9.90;99.90;;;;;;5094958;28;20180;-62
2024/01/03 03:53:47;;;;;;;10.30;4.10;;;9.90;99.90;;;;;;5094689;28;20181;-63
2024/01/03 03:56:28;;;;;;;15.57;4.60;;;10.00;99.90;;;;;;5050260;28;1257552;-62
2024/01/03 03:58:55;;;;;;;10.10;3.92;;;10.00;99.90;;;;;;5095776;28;20168;-63
2024/01/03 04:01:20;;;;;;;9.30;4.05;;;9.90;99.90;;;;;;5095609;28;20268;-63
2024/01/03 04:03:46;;;;;;;12.38;4.28;;;9.90;99.90;;;;;;5094923;28;20720;-62
2024/01/03 04:06:13;;;;;;;11.18;4.00;;;9.80;99.90;;;;;;5095196;28;20288;-62
2024/01/03 04:08:43;;;;;;;11.45;3.70;;;10.00;99.90;;;;;;5094920;28;20181;-63
2024/01/03 04:11:10;;;;;;;8.00;4.03;;;10.00;99.90;;;;;;5094900;28;20197;-63
2024/01/03 04:13:36;;;;;;;8.52;4.10;;;10.00;99.90;;;;;;5095184;28;20177;-63
2024/01/03 04:16:05;;;;;;;8.65;4.13;;;10.00;99.90;;;;;;5095675;28;20181;-62
2024/01/03 04:18:31;;;;;;;12.15;4.00;;;10.00;99.90;;;;;;5095280;28;20563;-62
2024/01/03 04:20:56;;;;;;;11.30;4.25;;;10.00;99.90;;;;;;5094737;28;20190;-63
2024/01/03 04:23:22;;;;;;;5.80;4.18;;;10.10;99.90;;;;;;5094847;28;20252;-63
2024/01/03 04:25:48;;;;;;;9.23;4.43;;;10.00;99.90;;;;;;5095135;28;20626;-62
2024/01/03 04:28:14;;;;;;;8.50;4.15;;;10.10;99.90;;;;;;5095248;28;20634;-64
2024/01/03 04:30:39;;;;;;;7.95;4.15;;;10.10;99.90;;;;;;5095140;28;20355;-63
2024/01/03 04:33:05;;;;;;;5.40;3.63;;;10.10;99.90;;;;;;5095470;28;20684;-62
2024/01/03 04:35:31;;;;;;;11.23;4.33;;;10.00;99.90;;;;;;5094783;28;20555;-63
2024/01/03 04:38:02;;;;;;;9.70;4.47;;;10.00;99.90;;;;;;5094506;28;20235;-62
2024/01/03 04:40:32;;;;;;;13.73;4.60;;;9.90;99.90;;;;;;5095052;28;20654;-62
2024/01/03 04:42:58;;;;;;;9.02;4.15;;;9.90;99.90;;;;;;5094311;28;20181;-63
2024/01/03 04:45:24;;;;;;;9.73;4.15;;;9.80;99.90;;;;;;5095440;28;20204;-62
2024/01/03 04:47:50;;;;;;;9.38;4.60;;;9.80;99.90;;;;;;5094732;28;20241;-63
2024/01/03 04:50:17;;;;;;;9.70;4.05;;;9.70;99.90;;;;;;5094646;28;20197;-62
2024/01/03 04:52:43;;;;;;;7.28;3.72;;;9.70;99.90;;;;;;5076121;28;20223;-62
2024/01/03 04:55:09;;;;;;;11.10;4.63;;;9.70;99.90;;;;;;5094832;28;20181;-62
2024/01/03 04:57:35;;;;;;;9.77;4.50;;;9.70;99.90;;;;;;5094477;28;20304;-62
2024/01/03 05:00:01;;;;;;;12.20;5.17;;;9.70;99.90;;;;;;5094532;28;20184;-62
2024/01/03 05:02:27;;;;;;;6.93;4.20;;;9.60;99.90;;;;;;5095200;28;20544;-62
2024/01/03 05:04:52;;;;;;;10.50;4.30;;;9.70;99.90;;;;;;5094417;28;20181;-63
2024/01/03 05:07:19;;;;;;;10.13;4.88;;;9.70;99.90;;;;;;5094633;28;20201;-63
2024/01/03 05:09:44;;;;;;;13.20;5.18;;;9.70;99.90;;;;;;5094433;28;20227;-63
2024/01/03 05:12:10;;;;;;;20.08;4.70;;;9.70;99.90;;;;;;5094405;28;20248;-62
2024/01/03 05:14:36;;;;;;;8.77;4.10;;;9.80;99.90;;;;;;5094373;28;20165;-62
2024/01/03 05:17:02;;;;;;;10.80;4.25;;;9.80;99.90;;;;;;5094260;28;20196;-63
2024/01/03 05:19:28;;;;;;;7.05;4.00;;;9.80;99.90;;;;;;5094191;28;20177;-63
2024/01/03 05:21:54;;;;;;;8.00;4.32;;;9.80;99.90;;;;;;5094666;28;20261;-63
2024/01/03 05:24:20;;;;;;;8.60;4.60;;;9.80;99.90;;;;;;5094404;28;20192;-63
2024/01/03 05:26:46;;;;;;;9.13;4.05;;;9.80;99.90;;;;;;5094107;28;20208;-62
2024/01/03 05:29:12;;;;;;;10.98;4.20;;;9.80;99.90;;;;;;5094120;28;20220;-62
2024/01/03 05:31:38;;;;;;;14.15;4.35;;;9.90;99.90;;;;;;5093606;28;20540;-62
2024/01/03 05:34:05;;;;;;;8.32;4.15;;;9.90;99.90;;;;;;5093639;28;20169;-62
2024/01/03 05:36:30;;;;;;;8.27;4.15;;;10.00;99.90;;;;;;5093945;28;20229;-63
2024/01/03 05:38:56;;;;;;;9.85;4.20;;;10.00;99.90;;;;;;5076400;28;20250;-63
2024/01/03 05:41:22;;;;;;;11.77;4.18;;;10.10;99.90;;;;;;5094567;28;20230;-63
2024/01/03 05:43:48;;;;;;;7.43;3.83;;;10.10;99.90;;;;;;5093779;28;20185;-63
2024/01/03 05:46:13;;;;;;;6.13;4.15;;;10.10;99.90;;;;;;5094365;28;20201;-66
2024/01/03 05:48:39;;;;;;;6.88;4.10;;;10.10;99.90;;;;;;5093499;28;20215;-63
2024/01/03 05:51:06;;;;;;;8.63;4.25;;;10.20;99.90;;;;;;5094176;28;20196;-62
2024/01/03 05:53:32;;;;;;;5.90;3.70;;;10.10;99.90;;;;;;5093969;28;20169;-63
2024/01/03 05:55:58;;;;;;;5.03;3.50;;;10.10;99.90;;;;;;5093716;28;20601;-63
2024/01/03 05:58:24;;;;;;;8.55;3.83;;;10.10;99.90;;;;;;5094185;28;20176;-62
2024/01/03 06:00:49;;;;;;;6.95;4.05;;;10.10;99.90;;;;;;5093903;28;20272;-63
2024/01/03 06:03:15;;;;;;;11.57;4.18;;;10.10;99.90;;;;;;5094117;28;20177;-63
2024/01/03 06:05:41;;;;;;;6.40;3.60;;;10.10;99.90;;;;;;5092890;28;20664;-64
2024/01/03 06:08:07;;;;;;;4.22;3.67;;;10.00;99.90;;;;;;5094008;28;20266;-62
2024/01/03 06:10:33;;;;;;;7.72;3.83;;;10.00;99.90;;;;;;5093454;28;20205;-62
2024/01/03 06:12:59;;;;;;;9.30;3.80;;;9.90;99.90;;;;;;5092988;28;20173;-62
2024/01/03 06:15:25;;;;;;;7.50;3.60;;;9.80;99.90;;;;;;5093747;28;20710;-62
2024/01/03 06:17:50;;;;;;;7.55;3.90;;;9.80;99.90;;;;;;5093995;28;20243;-62
2024/01/03 06:20:16;;;;;;;8.48;4.00;;;9.80;99.90;;;;;;5093102;28;20212;-63
2024/01/03 06:22:42;;;;;;;11.03;4.17;;;9.70;99.90;;;;;;5093550;28;20181;-62
2024/01/03 06:25:08;;;;;;;9.53;4.30;;;9.70;99.90;;;;;;5093817;28;20215;-63
2024/01/03 06:27:33;;;;;;;4.57;4.13;;;9.70;99.90;;;;;;5093598;28;20734;-62
2024/01/03 06:29:59;;;;;;;9.38;3.63;;;9.70;99.90;;;;;;5093735;28;20666;-62
2024/01/03 06:32:25;;;;;;;7.32;3.90;;;9.70;99.90;;;;;;5093406;28;20173;-62
2024/01/03 06:34:51;;;;;;;5.97;3.63;;;9.60;99.90;;;;;;5093413;28;20331;-62
2024/01/03 06:37:17;;;;;;;8.05;4.40;;;9.60;99.90;;;;;;5093153;28;20227;-62
2024/01/03 06:39:43;;;;;;;3.80;3.45;;;9.50;99.90;;;;;;5093539;28;20650;-63
2024/01/03 06:42:09;;;;;;;6.03;4.07;;;9.50;99.90;;;;;;5093465;28;20192;-63
2024/01/03 06:44:34;;;;;;;9.75;4.40;;;9.50;99.90;;;;;;5093451;28;20177;-62
2024/01/03 06:47:00;;;;;;;6.22;4.22;;;9.50;99.90;;;;;;5096355;28;20192;-62
2024/01/03 06:49:26;;;;;;;7.40;4.53;;;9.50;99.90;;;;;;5096241;28;20193;-62
2024/01/03 06:51:52;;;;;;;6.30;4.20;;;9.50;99.90;;;;;;5078277;28;20182;-62
2024/01/03 06:54:17;;;;;;;9.05;4.97;;;9.40;99.90;;;;;;5096970;28;20660;-62
2024/01/03 06:56:43;;;;;;;11.20;4.47;;;9.40;99.90;;;;;;5096698;28;20631;-63
2024/01/03 06:59:09;;;;;;;9.47;4.47;;;9.30;99.90;;;;;;5096818;28;20217;-62
2024/01/03 07:01:34;;;;;;;11.20;4.27;;;9.30;99.90;;;;;;5096841;28;20528;-63
2024/01/03 07:04:01;;;;;;;11.13;4.53;;;9.30;99.90;;;;;;5097462;28;20189;-63
2024/01/03 07:06:27;;;;;;;10.52;4.82;;;9.30;99.90;;;;;;5096006;28;20204;-62
2024/01/03 07:08:53;;;;;;;7.97;4.50;;;9.30;99.90;;;;;;5078493;28;20665;-62
2024/01/03 07:11:20;;;;;;;9.73;4.70;;;9.30;99.90;;;;;;5096586;28;20169;-62
2024/01/03 07:13:46;;;;;;;7.13;3.87;;;9.20;99.90;;;;;;5096751;28;20177;-62
2024/01/03 07:16:12;;;;;;;10.77;4.57;;;9.10;99.90;;;;;;5096245;28;20201;-62
2024/01/03 07:18:37;;;;;;;7.37;3.93;;;9.00;99.90;;;;;;5096594;28;20173;-63
2024/01/03 07:21:04;;;;;;;8.97;4.27;;;8.90;99.90;;;;;;5096210;28;20165;-62
2024/01/03 07:23:30;;;;;;;6.43;4.00;;;8.80;99.90;;;;;;5096460;28;20185;-62
2024/01/03 07:25:55;;;;;;;6.53;4.10;;;8.80;99.90;;;;;;5096302;28;20307;-63
2024/01/03 07:28:21;;;;;;;6.23;3.60;;;8.70;99.90;;;;;;5095708;28;20234;-62
2024/01/03 07:30:47;;;;;;;8.13;4.60;;;8.60;99.90;;;;;;5095496;28;20212;-62
2024/01/03 07:33:13;;;;;;;6.17;3.80;;;8.60;99.90;;;;;;5096105;28;20176;-62
2024/01/03 07:35:38;;;;;;;10.40;4.33;;;8.50;99.90;;;;;;5096072;28;20646;-62
2024/01/03 07:38:07;;;;;;;6.50;4.47;;;8.60;99.90;;;;;;5096188;28;20209;-63
2024/01/03 07:40:34;;;;;;;6.20;4.30;;;8.50;99.90;;;;;;5078103;28;20600;-62
2024/01/03 07:42:59;;;;;;;13.30;4.30;;;8.50;99.90;;;;;;5095779;28;20177;-62
2024/01/03 07:45:25;;;;;;;10.50;4.67;;;8.50;99.90;;;;;;5095836;28;20536;-62
2024/01/03 07:47:51;;;;;;;9.53;5.03;;;8.50;99.90;;;;;;5095850;28;20677;-62
2024/01/03 07:50:18;;;;;;;12.90;4.90;;;8.60;99.90;;;;;;5095394;28;20213;-62
2024/01/03 07:52:44;;;;;;;12.63;5.07;;;8.60;99.90;;;;;;5095431;28;20174;-62
2024/01/03 07:55:10;;;;;;;13.57;5.43;;;8.60;99.90;;;;;;5096075;28;20173;-62
2024/01/03 07:57:36;;;;;;;15.57;5.67;;;8.60;99.90;;;;;;5094381;28;20597;-61
2024/01/03 08:00:02;;;;;;;16.60;5.67;;;8.60;99.90;;;;;;5095815;28;20260;-62
2024/01/03 08:02:29;;;;;;;13.60;5.93;;;8.70;99.90;;;;;;5077260;28;20221;-62
2024/01/03 08:04:54;;;;;;;11.40;5.40;;;8.80;99.90;;;;;;5095303;28;20332;-62
2024/01/03 08:07:20;;;;;;;11.73;5.20;;;8.90;99.90;;;;;;5095172;28;20205;-62
2024/01/03 08:09:47;;;;;;;22.90;6.30;;;8.90;99.90;;;;;;5094949;28;20677;-62
2024/01/03 08:12:13;;;;;;;21.83;5.57;;;9.00;99.90;;;;;;5095167;28;20169;-62
2024/01/03 08:14:38;;;;;;;17.53;5.57;;;9.00;99.90;;;;;;5095471;28;20268;-61
2024/01/03 08:17:04;;;;;;;13.00;5.43;;;9.10;99.90;;;;;;5095329;28;20700;-62
2024/01/03 08:19:30;;;;;;;11.63;5.00;;;9.30;99.90;;;;;;5095069;28;20173;-62
2024/01/03 08:21:57;;;;;;;13.50;5.28;;;9.30;99.90;;;;;;5077194;28;20196;-62
2024/01/03 08:24:22;;;;;;;16.45;6.00;;;9.30;99.90;;;;;;5095352;28;20532;-62
2024/01/03 08:26:49;;;;;;;17.10;4.72;;;9.30;99.90;;;;;;5095387;28;20216;-62
2024/01/03 08:29:15;;;;;;;16.95;4.90;;;9.30;99.90;;;;;;5094719;28;20212;-62
2024/01/03 08:31:40;;;;;;;12.53;5.23;;;9.20;99.90;;;;;;5095054;28;20180;-62
2024/01/03 08:34:06;;;;;;;16.03;4.87;;;9.20;99.90;;;;;;5094865;28;20181;-62
2024/01/03 08:36:42;;;;;;;9.27;4.83;;;9.10;99.90;;;;;;5095207;28;20267;-61
2024/01/03 08:39:08;;;;;;;11.97;4.73;;;9.00;99.90;;;;;;5094831;28;20267;-62
2024/01/03 08:41:35;;;;;;;10.77;4.43;;;9.00;99.90;;;;;;5094522;28;20177;-62
2024/01/03 08:44:02;;;;;;;11.17;4.40;;;8.90;99.90;;;;;;5095022;28;20232;-62
2024/01/03 08:46:34;;;;;;;13.10;4.37;;;8.80;99.90;;;;;;5095254;28;20288;-63
2024/01/03 08:49:02;;;;;;;9.15;4.18;;;8.80;99.90;;;;;;5094566;28;20212;-63
2024/01/03 08:51:28;;;;;;;9.07;4.47;;;8.80;99.90;;;;;;5094168;28;20213;-62
2024/01/03 08:53:53;;;;;;;4.13;3.60;;;8.90;99.90;;;;;;5094396;28;20201;-62
2024/01/03 08:56:19;;;;;;;10.17;4.07;;;8.80;99.90;;;;;;5093851;28;20283;-62
2024/01/03 08:58:47;;;;;;;8.00;3.90;;;8.90;99.90;;;;;;5094682;28;20174;-62
2024/01/03 09:01:20;;;;;;;4.00;3.57;;;8.90;99.90;;;;;;5094937;28;20177;-62
2024/01/03 09:03:46;;;;;;;6.63;3.93;;;8.90;99.90;;;;;;5094604;28;20196;-62
2024/01/03 09:06:22;;;;;;;12.07;4.17;;;9.00;99.90;;;;;;5075919;28;20288;-63
2024/01/03 09:08:50;;;;;;;6.23;3.90;;;9.00;99.90;;;;;;5093994;28;20176;-61
2024/01/03 09:11:27;;;;;;;6.70;4.07;;;9.00;99.90;;;;;;5094041;28;20165;-62
2024/01/03 09:13:53;;;;;;;10.30;3.80;;;8.90;99.90;;;;;;5094438;28;20525;-61
2024/01/03 09:16:22;;;;;;;12.87;4.63;;;8.80;99.90;;;;;;5094055;28;20237;-61
2024/01/03 09:18:48;;;;;;;11.23;4.33;;;8.80;99.90;;;;;;5094433;28;20183;-62
2024/01/03 09:21:15;;;;;;;11.00;4.27;;;8.80;99.90;;;;;;5093979;28;20181;-61
2024/01/03 09:23:41;;;;;;;5.77;4.23;;;8.80;99.90;;;;;;5093957;28;20657;-61
2024/01/03 09:26:09;;;;;;;13.17;4.73;;;8.80;99.90;;;;;;5094087;28;20282;-62
2024/01/03 09:28:37;;;;;;;12.97;4.70;;;8.70;99.90;;;;;;5094039;28;20289;-61
2024/01/03 09:31:03;;;;;;;10.03;4.20;;;8.70;99.90;;;;;;5094014;28;20702;-62
2024/01/03 09:33:29;;;;;;;11.53;4.20;;;8.80;99.90;;;;;;5094276;28;20188;-62
2024/01/03 09:35:55;;;;;;;11.53;4.60;;;8.70;99.90;;;;;;5093541;28;20260;-62
2024/01/03 09:38:21;;;;;;;10.20;4.40;;;8.70;99.90;;;;;;5094001;28;20169;-62
2024/01/03 09:40:47;;;;;;;11.70;4.17;;;8.70;99.90;;;;;;5093788;28;20185;-62
2024/01/03 09:43:14;;;;;;;12.70;4.60;;;8.70;99.90;;;;;;5093726;28;20238;-62
2024/01/03 09:45:40;;;;;;;11.77;5.20;;;8.80;99.90;;;;;;5075525;28;20181;-62
2024/01/03 09:48:09;;;;;;;12.03;4.60;;;8.80;99.90;;;;;;5093665;28;20205;-62
2024/01/03 09:50:35;;;;;;;14.10;4.60;;;8.80;99.90;;;;;;5093572;28;20729;-62
2024/01/03 09:53:02;;;;;;;10.87;5.27;;;8.80;99.90;;;;;;5093194;28;20180;-62
2024/01/03 09:55:29;;;;;;;10.87;4.60;;;8.70;99.90;;;;;;5093652;28;20667;-62
2024/01/03 09:57:55;;;;;;;14.73;4.80;;;8.70;99.90;;;;;;5093575;28;20259;-62
2024/01/03 10:00:23;;;;;;;16.70;4.97;;;8.60;99.90;;;;;;5093467;28;20185;-61
2024/01/03 10:02:50;;;;;;;12.33;5.20;;;8.60;99.90;;;;;;5094033;28;20323;-62
2024/01/03 10:05:22;;;;;;;13.23;4.37;;;8.60;99.90;;;;;;5093205;28;20234;-62
2024/01/03 10:07:48;;;;;;;17.97;5.60;;;8.60;99.90;;;;;;5093762;28;20666;-61
2024/01/03 10:10:29;;;;;;;15.67;5.60;;;8.60;99.90;;;;;;5093827;28;20215;-61
2024/01/03 10:12:55;;;;;;;13.80;5.37;;;8.60;99.90;;;;;;5093979;28;20626;-61
2024/01/03 10:15:21;;;;;;;12.53;4.97;;;8.60;99.90;;;;;;5092992;28;20253;-62
2024/01/03 10:17:47;;;;;;;16.17;5.03;;;8.60;99.90;;;;;;5094011;28;20197;-62
2024/01/03 10:20:28;;;;;;;14.80;5.70;;;8.60;99.90;;;;;;5093990;28;20218;-61
2024/01/03 10:23:03;;;;;;;10.80;5.13;;;8.50;99.90;;;;;;5097984;28;20180;-62
2024/01/03 10:25:29;;;;;;;14.33;4.53;;;8.60;99.90;;;;;;5079378;28;20184;-62
2024/01/03 10:28:05;;;;;;;17.27;5.03;;;8.60;99.90;;;;;;5097175;28;20740;-61
2024/01/03 10:30:31;;;;;;;13.10;5.43;;;8.60;99.90;;;;;;5097103;28;20254;-61
2024/01/03 10:33:08;;;;;;;10.33;5.03;;;8.60;99.90;;;;;;5097436;28;20172;-61
2024/01/03 10:35:39;;;;;;;16.03;5.13;;;8.70;99.90;;;;;;5097444;28;20256;-61
2024/01/03 10:38:05;;;;;;;10.97;5.00;;;8.80;99.90;;;;;;5098076;28;20204;-61
2024/01/03 10:40:33;;;;;;;11.00;4.87;;;8.80;99.90;;;;;;5098264;28;20575;-61
2024/01/03 10:43:00;;;;;;;11.30;4.33;;;8.90;99.90;;;;;;5097257;28;20163;-61
2024/01/03 10:45:28;;;;;;;13.47;5.07;;;9.00;99.90;;;;;;5097221;28;20189;-61
2024/01/03 10:47:54;;;;;;;12.27;4.37;;;9.00;99.90;;;;;;5096709;28;20291;-61
2024/01/03 10:50:20;;;;;;;7.65;4.28;;;9.20;99.90;;;;;;5096215;28;20276;-62
2024/01/03 10:52:47;;;;;;;10.60;4.37;;;9.20;99.90;;;;;;5096677;28;20176;-62
2024/01/03 10:55:19;;;;;;;10.63;4.33;;;9.20;99.90;;;;;;5096913;28;20520;-61
2024/01/03 10:57:58;;;;;;;9.60;4.10;;;9.20;99.90;;;;;;5096762;28;20628;-62
2024/01/03 11:00:40;;;;;;;7.75;4.50;;;9.20;99.90;;;;;;5097089;28;20171;-61
2024/01/03 11:03:20;;;;;;;12.20;4.90;;;9.20;99.90;;;;;;5096743;28;20193;-62
2024/01/03 11:06:36;;;;;;;9.43;4.73;;;9.30;99.90;;;;;;5096331;28;20215;-62
2024/01/03 11:09:02;;;;;;;14.70;4.85;;;9.30;99.90;;;;;;5078851;28;20227;-62
2024/01/03 11:11:35;;;;;;;8.03;4.47;;;9.40;99.90;;;;;;5097012;28;20173;-62
2024/01/03 11:14:20;;;;;;;11.27;4.70;;;9.50;99.90;;;;;;5097482;28;20173;-62
2024/01/03 11:16:46;;;;;;;13.05;4.93;;;9.50;99.90;;;;;;5097012;28;20207;-62
2024/01/03 11:19:13;;;;;;;12.52;5.07;;;9.50;99.90;;;;;;5096865;28;20185;-62
2024/01/03 11:21:44;;;;;;;12.93;5.35;;;9.60;99.90;;;;;;5095759;28;20181;-64
2024/01/03 11:24:09;;;;;;;12.03;4.77;;;9.70;99.90;;;;;;5096292;28;20185;-63
2024/01/03 11:27:03;;;;;;;11.50;4.40;;;9.80;99.90;;;;;;5095918;28;20563;-62
2024/01/03 11:29:35;;;;;;;14.63;4.25;;;9.80;99.90;;;;;;5077529;28;20209;-63
2024/01/03 11:32:23;;;;;;;9.00;4.47;;;9.80;99.90;;;;;;5095971;28;20219;-63
2024/01/03 11:34:49;;;;;;;12.00;4.77;;;9.80;99.90;;;;;;5096510;28;20169;-61
2024/01/03 11:37:18;;;;;;;10.57;4.47;;;9.80;99.90;;;;;;5095684;28;20193;-62
2024/01/03 11:39:50;;;;;;;11.23;4.67;;;9.80;99.90;;;;;;5095640;28;20204;-62
2024/01/03 11:42:20;;;;;;;7.57;4.63;;;9.70;99.90;;;;;;5095975;28;20165;-63
2024/01/03 11:44:58;;;;;;;10.67;4.67;;;9.80;99.90;;;;;;5095304;28;20242;-62
2024/01/03 11:47:24;;;;;;;10.13;4.87;;;9.80;99.90;;;;;;5095539;28;20555;-63
2024/01/03 11:49:55;;;;;;;16.23;5.03;;;9.80;99.90;;;;;;5095598;28;20211;-62
2024/01/03 11:52:21;;;;;;;9.63;4.68;;;9.80;99.90;;;;;;5096091;28;20667;-62
2024/01/03 11:54:49;;;;;;;14.60;4.60;;;9.80;99.90;;;;;;5095663;28;20252;-62
2024/01/03 11:57:14;;;;;;;12.23;5.10;;;9.70;99.90;;;;;;5095370;28;20624;-62
2024/01/03 11:59:41;;;;;;;12.87;5.80;;;9.70;99.90;;;;;;5095969;28;20327;-62
2024/01/03 12:02:07;;;;;;;18.37;5.10;;;9.70;99.90;;;;;;5095673;28;20307;-62
2024/01/03 12:04:33;;;;;;;14.00;5.17;;;9.60;99.90;;;;;;5095242;28;20682;-62
2024/01/03 12:06:59;;;;;;;18.23;5.67;;;9.50;99.90;;;;;;5094895;28;20276;-63
2024/01/03 12:09:31;;;;;;;10.87;5.00;;;9.40;99.90;;;;;;5095717;28;20685;-62
2024/01/03 12:11:57;;;;;;;19.23;5.60;;;9.40;99.90;;;;;;5095244;28;20185;-63
2024/01/03 12:14:23;;;;;;;11.50;5.00;;;9.40;99.90;;;;;;5095199;28;20231;-62
2024/01/03 12:16:54;;;;;;;11.07;4.80;;;9.40;99.90;;;;;;5094992;28;20201;-62
2024/01/03 12:19:27;;;;;;;14.23;5.00;;;9.40;99.90;;;;;;5094823;28;20161;-62
2024/01/03 12:22:00;;;;;;;13.40;5.00;;;9.40;99.90;;;;;;5094613;28;20187;-61
2024/01/03 12:24:44;;;;;;;15.37;5.27;;;9.50;99.90;;;;;;5095658;28;20168;-62
2024/01/03 12:27:10;;;;;;;15.20;4.93;;;9.50;99.90;;;;;;5095013;28;20295;-62
2024/01/03 12:29:39;;;;;;;16.87;5.47;;;9.60;99.90;;;;;;5094596;28;20292;-62
2024/01/03 12:32:14;;;;;;;12.63;4.97;;;9.70;99.90;;;;;;5094731;28;20193;-62
2024/01/03 12:34:40;;;;;;;11.17;5.50;;;9.80;99.90;;;;;;5095340;28;20161;-62
2024/01/03 12:37:06;;;;;;;15.15;5.03;;;9.80;99.90;;;;;;5094682;28;20638;-62
2024/01/03 12:39:35;;;;;;;12.70;5.43;;;9.80;99.90;;;;;;5094935;28;20189;-62
2024/01/03 12:42:05;;;;;;;12.48;5.05;;;9.80;99.90;;;;;;5094516;28;20688;-62
2024/01/03 12:44:36;;;;;;;16.47;5.20;;;9.90;99.90;;;;;;5094255;28;20231;-62
2024/01/03 12:47:05;;;;;;;12.13;4.77;;;9.90;99.90;;;;;;5094436;28;20688;-62
2024/01/03 12:49:30;;;;;;;12.73;4.93;;;9.90;99.90;;;;;;5094122;28;20205;-61